Terminal Aerodrome Forecast
Issued by NWS Huntsville, AL

Home | Current Version | Previous Version | Text Only | Print | Product List | Glossary On
Versions: 1 2 3 4 5 6 7 8 9 10 11 12 13
000
FTUS44 KHUN 191722
TAFMSL
TAF
KMSL 191722Z 1918/2018 VRB04KT P6SM SCT040
     FM200000 00000KT P6SM SKC
     FM200800 00000KT 3SM BR SKC
     FM201200 14004KT P6SM FEW040 SCT250=

USA.gov is the U.S. government's official web portal to all federal, state and local government web resources and services.